Terminal Aerodrome Forecast
Issued by NWS

Home | Current Version | Previous Version | Text Only | Print | Product List | Glossary Off
Versions: 1 2 3 4 5 6 7 8 9 10 11 12 13 14 15 16 17

000
FTUS43 KICT 190522
TAFHUT
TAF
KHUT 190522Z 1906/2006 18009KT P6SM SCT250
     FM191700 19015G22KT P6SM SCT250
     FM200000 17011KT P6SM SCT250=

USA.gov is the U.S. government's official web portal to all federal, state and local government web resources and services.